Terminal Aerodrome Forecast
Issued by NWS

Home | Current Version | Previous Version | Text Only | Print | Product List | Glossary On
Versions: 1 2 3 4 5 6 7 8 9 10 11 12 13 14 15 16 17 18 19
358
FTAK31 PAJN 300535
TAFAYA
TAF
PAYA 300535Z 3006/3106 12010KT P6SM -SHRA SCT008 SCT015 OVC030
      TEMPO 3006/3010 4SM -SHRA BKN008 OVC015
     FM301000 VRB04KT P6SM VCSH BKN008 OVC015
     FM301400 08005KT P6SM SCT025 BKN050
     FM302100 12010KT P6SM VCSH OVC030 WS020/14025KT
     FM310000 11012G20KT 5SM -RA BR OVC015 WS020/14040KT
     FM310400 11015G35KT 3SM -RA BR OVC015 WS020/14045KT
      AMD LTD TO CLD VIS AND WIND 3006/3009=

USA.gov is the U.S. government's official web portal to all federal, state and local government web resources and services.